sensor_id;sensor_type;location;lat;lon;timestamp;temperature;humidity
7800;DHT22;3944;47.984;7.960;2022-08-03T00:02:11;18.10;99.90
7800;DHT22;3944;47.984;7.960;2022-08-03T00:04:38;18.20;99.90
7800;DHT22;3944;47.984;7.960;2022-08-03T00:07:05;18.20;99.90
7800;DHT22;3944;47.984;7.960;2022-08-03T00:09:32;18.10;99.90
7800;DHT22;3944;47.984;7.960;2022-08-03T00:12:00;18.10;99.90
7800;DHT22;3944;47.984;7.960;2022-08-03T00:14:27;18.10;99.90
7800;DHT22;3944;47.984;7.960;2022-08-03T00:16:54;18.10;99.90
7800;DHT22;3944;47.984;7.960;2022-08-03T00:19:21;18.00;99.90
7800;DHT22;3944;47.984;7.960;2022-08-03T00:21:48;18.10;99.90
7800;DHT22;3944;47.984;7.960;2022-08-03T00:24:14;18.00;99.90
7800;DHT22;3944;47.984;7.960;2022-08-03T00:26:41;18.10;99.90
7800;DHT22;3944;47.984;7.960;2022-08-03T00:29:09;18.00;99.90
7800;DHT22;3944;47.984;7.960;2022-08-03T00:31:36;17.90;99.90
7800;DHT22;3944;47.984;7.960;2022-08-03T00:34:03;17.90;99.90
7800;DHT22;3944;47.984;7.960;2022-08-03T00:36:30;17.80;99.90
7800;DHT22;3944;47.984;7.960;2022-08-03T00:38:57;17.80;99.90
7800;DHT22;3944;47.984;7.960;2022-08-03T00:41:24;17.80;99.90
7800;DHT22;3944;47.984;7.960;2022-08-03T00:43:51;17.80;99.90
7800;DHT22;3944;47.984;7.960;2022-08-03T00:46:19;17.70;99.90
7800;DHT22;3944;47.984;7.960;2022-08-03T00:48:47;17.90;99.90
7800;DHT22;3944;47.984;7.960;2022-08-03T00:51:14;17.70;99.90
7800;DHT22;3944;47.984;7.960;2022-08-03T00:53:41;17.60;99.90
7800;DHT22;3944;47.984;7.960;2022-08-03T00:56:08;17.70;99.90
7800;DHT22;3944;47.984;7.960;2022-08-03T00:58:38;17.70;99.90
7800;DHT22;3944;47.984;7.960;2022-08-03T01:01:04;17.60;99.90
7800;DHT22;3944;47.984;7.960;2022-08-03T01:03:33;17.70;99.90
7800;DHT22;3944;47.984;7.960;2022-08-03T01:06:06;17.60;99.90
7800;DHT22;3944;47.984;7.960;2022-08-03T01:08:43;17.60;99.90
7800;DHT22;3944;47.984;7.960;2022-08-03T01:11:18;17.60;99.90
7800;DHT22;3944;47.984;7.960;2022-08-03T01:13:50;17.60;99.90
7800;DHT22;3944;47.984;7.960;2022-08-03T01:16:26;17.60;99.90
7800;DHT22;3944;47.984;7.960;2022-08-03T01:19:01;17.70;99.90
7800;DHT22;3944;47.984;7.960;2022-08-03T01:21:37;17.60;99.90
7800;DHT22;3944;47.984;7.960;2022-08-03T01:24:17;17.60;99.90
7800;DHT22;3944;47.984;7.960;2022-08-03T01:27:02;17.50;99.90
7800;DHT22;3944;47.984;7.960;2022-08-03T01:32:40;17.50;99.90
7800;DHT22;3944;47.984;7.960;2022-08-03T01:35:11;17.50;99.90
7800;DHT22;3944;47.984;7.960;2022-08-03T01:37:40;17.50;99.90
7800;DHT22;3944;47.984;7.960;2022-08-03T01:40:11;17.50;99.90
7800;DHT22;3944;47.984;7.960;2022-08-03T01:42:40;17.30;99.90
7800;DHT22;3944;47.984;7.960;2022-08-03T01:45:10;17.40;99.90
7800;DHT22;3944;47.984;7.960;2022-08-03T01:47:39;17.30;99.90
7800;DHT22;3944;47.984;7.960;2022-08-03T01:50:07;17.30;99.90
7800;DHT22;3944;47.984;7.960;2022-08-03T01:52:37;17.40;99.90
7800;DHT22;3944;47.984;7.960;2022-08-03T01:55:07;17.40;99.90
7800;DHT22;3944;47.984;7.960;2022-08-03T01:57:35;17.30;99.90
7800;DHT22;3944;47.984;7.960;2022-08-03T02:00:04;17.20;99.90
7800;DHT22;3944;47.984;7.960;2022-08-03T02:02:36;17.30;99.90
7800;DHT22;3944;47.984;7.960;2022-08-03T02:05:06;17.30;99.90
7800;DHT22;3944;47.984;7.960;2022-08-03T02:07:35;17.20;99.90
7800;DHT22;3944;47.984;7.960;2022-08-03T02:10:05;17.20;99.90
7800;DHT22;3944;47.984;7.960;2022-08-03T02:12:33;17.30;99.90
7800;DHT22;3944;47.984;7.960;2022-08-03T02:15:02;17.20;99.90
7800;DHT22;3944;47.984;7.960;2022-08-03T02:17:31;17.20;99.90
7800;DHT22;3944;47.984;7.960;2022-08-03T02:20:02;17.20;99.90
7800;DHT22;3944;47.984;7.960;2022-08-03T02:22:30;17.20;99.90
7800;DHT22;3944;47.984;7.960;2022-08-03T02:24:58;17.20;99.90
7800;DHT22;3944;47.984;7.960;2022-08-03T02:27:26;17.20;99.90
7800;DHT22;3944;47.984;7.960;2022-08-03T02:30:04;17.10;99.90
7800;DHT22;3944;47.984;7.960;2022-08-03T02:32:36;17.10;99.90
7800;DHT22;3944;47.984;7.960;2022-08-03T02:35:08;17.10;99.90
7800;DHT22;3944;47.984;7.960;2022-08-03T02:37:40;17.00;99.90
7800;DHT22;3944;47.984;7.960;2022-08-03T02:40:09;17.10;99.90
7800;DHT22;3944;47.984;7.960;2022-08-03T02:42:38;17.10;99.90
7800;DHT22;3944;47.984;7.960;2022-08-03T02:45:08;17.10;99.90
7800;DHT22;3944;47.984;7.960;2022-08-03T02:47:38;17.10;99.90
7800;DHT22;3944;47.984;7.960;2022-08-03T02:50:11;17.00;99.90
7800;DHT22;3944;47.984;7.960;2022-08-03T02:52:40;17.00;99.90
7800;DHT22;3944;47.984;7.960;2022-08-03T02:55:08;17.10;99.90
7800;DHT22;3944;47.984;7.960;2022-08-03T02:57:36;17.10;99.90
7800;DHT22;3944;47.984;7.960;2022-08-03T03:00:04;17.10;99.90
7800;DHT22;3944;47.984;7.960;2022-08-03T03:02:32;17.00;99.90
7800;DHT22;3944;47.984;7.960;2022-08-03T03:05:00;16.90;99.90
7800;DHT22;3944;47.984;7.960;2022-08-03T03:07:29;16.90;99.90
7800;DHT22;3944;47.984;7.960;2022-08-03T03:09:57;16.90;99.90
7800;DHT22;3944;47.984;7.960;2022-08-03T03:12:25;17.00;99.90
7800;DHT22;3944;47.984;7.960;2022-08-03T03:14:53;16.90;99.90
7800;DHT22;3944;47.984;7.960;2022-08-03T03:17:20;16.90;99.90
7800;DHT22;3944;47.984;7.960;2022-08-03T03:19:48;16.90;99.90
7800;DHT22;3944;47.984;7.960;2022-08-03T03:22:17;16.80;99.90
7800;DHT22;3944;47.984;7.960;2022-08-03T03:24:45;16.80;99.90
7800;DHT22;3944;47.984;7.960;2022-08-03T03:27:13;16.80;99.90
7800;DHT22;3944;47.984;7.960;2022-08-03T03:29:41;16.70;99.90
7800;DHT22;3944;47.984;7.960;2022-08-03T03:32:08;16.70;99.90
7800;DHT22;3944;47.984;7.960;2022-08-03T03:34:35;16.70;99.90
7800;DHT22;3944;47.984;7.960;2022-08-03T03:37:02;16.80;99.90
7800;DHT22;3944;47.984;7.960;2022-08-03T03:39:30;16.80;99.90
7800;DHT22;3944;47.984;7.960;2022-08-03T03:41:59;16.80;99.90
7800;DHT22;3944;47.984;7.960;2022-08-03T03:44:27;16.70;99.90
7800;DHT22;3944;47.984;7.960;2022-08-03T03:46:54;16.70;99.90
7800;DHT22;3944;47.984;7.960;2022-08-03T03:49:21;16.70;99.90
7800;DHT22;3944;47.984;7.960;2022-08-03T03:51:51;16.70;99.90
7800;DHT22;3944;47.984;7.960;2022-08-03T03:54:18;16.80;99.90
7800;DHT22;3944;47.984;7.960;2022-08-03T03:56:46;16.80;99.90
7800;DHT22;3944;47.984;7.960;2022-08-03T03:59:14;16.80;99.90
7800;DHT22;3944;47.984;7.960;2022-08-03T04:01:41;16.70;99.90
7800;DHT22;3944;47.984;7.960;2022-08-03T04:04:08;16.60;99.90
7800;DHT22;3944;47.984;7.960;2022-08-03T04:06:52;16.50;99.90
7800;DHT22;3944;47.984;7.960;2022-08-03T04:09:37;16.60;99.90
7800;DHT22;3944;47.984;7.960;2022-08-03T04:12:25;16.60;99.90
7800;DHT22;3944;47.984;7.960;2022-08-03T04:14:56;16.50;99.90
7800;DHT22;3944;47.984;7.960;2022-08-03T04:17:24;16.50;99.90
7800;DHT22;3944;47.984;7.960;2022-08-03T04:19:53;16.70;99.90
7800;DHT22;3944;47.984;7.960;2022-08-03T04:22:24;16.50;99.90
7800;DHT22;3944;47.984;7.960;2022-08-03T04:24:54;16.60;99.90
7800;DHT22;3944;47.984;7.960;2022-08-03T04:27:25;16.70;99.90
7800;DHT22;3944;47.984;7.960;2022-08-03T04:29:56;16.90;99.90
7800;DHT22;3944;47.984;7.960;2022-08-03T04:32:24;16.70;99.90
7800;DHT22;3944;47.984;7.960;2022-08-03T04:34:53;16.70;99.90
7800;DHT22;3944;47.984;7.960;2022-08-03T04:37:25;16.80;99.90
7800;DHT22;3944;47.984;7.960;2022-08-03T04:39:56;16.80;99.90
7800;DHT22;3944;47.984;7.960;2022-08-03T04:42:25;16.90;99.90
7800;DHT22;3944;47.984;7.960;2022-08-03T04:44:54;17.00;99.90
7800;DHT22;3944;47.984;7.960;2022-08-03T04:47:23;16.80;99.90
7800;DHT22;3944;47.984;7.960;2022-08-03T04:49:50;16.70;99.90
7800;DHT22;3944;47.984;7.960;2022-08-03T04:52:18;16.80;99.90
7800;DHT22;3944;47.984;7.960;2022-08-03T04:54:45;16.70;99.90
7800;DHT22;3944;47.984;7.960;2022-08-03T04:57:12;16.70;99.90
7800;DHT22;3944;47.984;7.960;2022-08-03T04:59:39;16.70;99.90
7800;DHT22;3944;47.984;7.960;2022-08-03T05:02:07;16.80;99.90
7800;DHT22;3944;47.984;7.960;2022-08-03T05:04:34;16.80;99.90
7800;DHT22;3944;47.984;7.960;2022-08-03T05:07:02;16.80;99.90
7800;DHT22;3944;47.984;7.960;2022-08-03T05:09:29;16.80;99.90
7800;DHT22;3944;47.984;7.960;2022-08-03T05:11:56;16.80;99.90
7800;DHT22;3944;47.984;7.960;2022-08-03T05:14:23;16.80;99.90
7800;DHT22;3944;47.984;7.960;2022-08-03T05:16:49;16.80;99.90
7800;DHT22;3944;47.984;7.960;2022-08-03T05:19:18;16.90;99.90
7800;DHT22;3944;47.984;7.960;2022-08-03T05:21:45;17.00;99.90
7800;DHT22;3944;47.984;7.960;2022-08-03T05:24:11;17.00;99.90
7800;DHT22;3944;47.984;7.960;2022-08-03T05:26:38;17.10;99.90
7800;DHT22;3944;47.984;7.960;2022-08-03T05:29:05;17.30;99.90
7800;DHT22;3944;47.984;7.960;2022-08-03T05:31:32;17.40;99.90
7800;DHT22;3944;47.984;7.960;2022-08-03T05:33:59;17.60;99.90
7800;DHT22;3944;47.984;7.960;2022-08-03T05:36:27;17.80;99.90
7800;DHT22;3944;47.984;7.960;2022-08-03T05:38:54;17.90;99.90
7800;DHT22;3944;47.984;7.960;2022-08-03T05:41:21;18.10;99.90
7800;DHT22;3944;47.984;7.960;2022-08-03T05:43:48;18.20;99.90
7800;DHT22;3944;47.984;7.960;2022-08-03T05:46:15;18.30;99.90
7800;DHT22;3944;47.984;7.960;2022-08-03T05:48:42;18.50;99.90
7800;DHT22;3944;47.984;7.960;2022-08-03T05:51:09;18.60;99.90
7800;DHT22;3944;47.984;7.960;2022-08-03T05:53:38;18.70;99.90
7800;DHT22;3944;47.984;7.960;2022-08-03T05:56:05;18.80;99.90
7800;DHT22;3944;47.984;7.960;2022-08-03T05:58:32;19.10;99.90
7800;DHT22;3944;47.984;7.960;2022-08-03T06:00:59;19.30;99.90
7800;DHT22;3944;47.984;7.960;2022-08-03T06:03:25;19.40;99.90
7800;DHT22;3944;47.984;7.960;2022-08-03T06:05:52;19.60;99.90
7800;DHT22;3944;47.984;7.960;2022-08-03T06:08:20;19.60;99.90
7800;DHT22;3944;47.984;7.960;2022-08-03T06:10:48;19.60;99.90
7800;DHT22;3944;47.984;7.960;2022-08-03T06:13:15;19.60;99.90
7800;DHT22;3944;47.984;7.960;2022-08-03T06:15:42;19.80;99.90
7800;DHT22;3944;47.984;7.960;2022-08-03T06:18:09;19.80;99.90
7800;DHT22;3944;47.984;7.960;2022-08-03T06:20:36;20.00;99.90
7800;DHT22;3944;47.984;7.960;2022-08-03T06:23:03;20.10;99.90
7800;DHT22;3944;47.984;7.960;2022-08-03T06:25:29;20.10;99.90
7800;DHT22;3944;47.984;7.960;2022-08-03T06:27:58;20.30;99.90
7800;DHT22;3944;47.984;7.960;2022-08-03T06:30:25;20.40;99.90
7800;DHT22;3944;47.984;7.960;2022-08-03T06:32:52;20.50;99.90
7800;DHT22;3944;47.984;7.960;2022-08-03T06:35:19;20.60;99.90
7800;DHT22;3944;47.984;7.960;2022-08-03T06:37:48;20.70;99.90
7800;DHT22;3944;47.984;7.960;2022-08-03T06:40:17;20.90;99.90
7800;DHT22;3944;47.984;7.960;2022-08-03T06:42:45;20.90;99.90
7800;DHT22;3944;47.984;7.960;2022-08-03T06:45:13;21.00;99.90
7800;DHT22;3944;47.984;7.960;2022-08-03T06:47:40;21.10;99.90
7800;DHT22;3944;47.984;7.960;2022-08-03T06:50:07;21.10;99.90
7800;DHT22;3944;47.984;7.960;2022-08-03T06:52:35;21.20;99.90
7800;DHT22;3944;47.984;7.960;2022-08-03T06:55:02;21.20;99.90
7800;DHT22;3944;47.984;7.960;2022-08-03T06:57:29;21.30;99.90
7800;DHT22;3944;47.984;7.960;2022-08-03T06:59:56;21.40;99.90
7800;DHT22;3944;47.984;7.960;2022-08-03T07:02:27;21.50;99.90
7800;DHT22;3944;47.984;7.960;2022-08-03T07:04:55;21.60;99.90
7800;DHT22;3944;47.984;7.960;2022-08-03T07:07:21;21.70;99.90
7800;DHT22;3944;47.984;7.960;2022-08-03T07:09:48;21.80;99.90
7800;DHT22;3944;47.984;7.960;2022-08-03T07:12:15;21.80;99.90
7800;DHT22;3944;47.984;7.960;2022-08-03T07:14:42;21.90;99.90
7800;DHT22;3944;47.984;7.960;2022-08-03T07:17:09;21.90;99.90
7800;DHT22;3944;47.984;7.960;2022-08-03T07:19:37;22.00;99.90
7800;DHT22;3944;47.984;7.960;2022-08-03T07:22:04;22.00;99.90
7800;DHT22;3944;47.984;7.960;2022-08-03T07:24:31;22.00;99.90
7800;DHT22;3944;47.984;7.960;2022-08-03T07:26:58;22.00;99.90
7800;DHT22;3944;47.984;7.960;2022-08-03T07:29:24;22.00;99.90
7800;DHT22;3944;47.984;7.960;2022-08-03T07:31:51;22.00;99.90
7800;DHT22;3944;47.984;7.960;2022-08-03T07:34:18;22.00;99.90
7800;DHT22;3944;47.984;7.960;2022-08-03T07:36:47;22.10;99.90
7800;DHT22;3944;47.984;7.960;2022-08-03T07:39:13;22.10;99.90
7800;DHT22;3944;47.984;7.960;2022-08-03T07:41:40;22.10;99.90
7800;DHT22;3944;47.984;7.960;2022-08-03T07:44:07;22.20;99.90
7800;DHT22;3944;47.984;7.960;2022-08-03T07:46:34;22.10;99.90
7800;DHT22;3944;47.984;7.960;2022-08-03T07:49:01;22.10;99.90
7800;DHT22;3944;47.984;7.960;2022-08-03T07:51:28;22.20;99.90
7800;DHT22;3944;47.984;7.960;2022-08-03T07:53:56;22.30;99.90
7800;DHT22;3944;47.984;7.960;2022-08-03T07:56:23;22.50;99.90
7800;DHT22;3944;47.984;7.960;2022-08-03T07:58:50;22.60;99.90
7800;DHT22;3944;47.984;7.960;2022-08-03T08:01:17;22.50;99.90
7800;DHT22;3944;47.984;7.960;2022-08-03T08:03:44;22.60;99.90
7800;DHT22;3944;47.984;7.960;2022-08-03T08:06:11;22.70;99.90
7800;DHT22;3944;47.984;7.960;2022-08-03T08:08:39;22.60;99.90
7800;DHT22;3944;47.984;7.960;2022-08-03T08:11:07;23.00;98.80
7800;DHT22;3944;47.984;7.960;2022-08-03T08:13:34;23.00;98.60
7800;DHT22;3944;47.984;7.960;2022-08-03T08:16:02;23.10;97.80
7800;DHT22;3944;47.984;7.960;2022-08-03T08:18:29;23.00;98.30
7800;DHT22;3944;47.984;7.960;2022-08-03T08:20:56;23.00;97.30
7800;DHT22;3944;47.984;7.960;2022-08-03T08:23:23;23.30;96.60
7800;DHT22;3944;47.984;7.960;2022-08-03T08:25:51;23.50;96.20
7800;DHT22;3944;47.984;7.960;2022-08-03T08:28:19;23.70;94.90
7800;DHT22;3944;47.984;7.960;2022-08-03T08:30:47;23.60;94.60
7800;DHT22;3944;47.984;7.960;2022-08-03T08:33:14;23.80;94.70
7800;DHT22;3944;47.984;7.960;2022-08-03T08:35:40;23.90;94.80
7800;DHT22;3944;47.984;7.960;2022-08-03T08:38:07;24.00;93.80
7800;DHT22;3944;47.984;7.960;2022-08-03T08:40:34;24.10;93.40
7800;DHT22;3944;47.984;7.960;2022-08-03T08:43:01;24.10;93.70
7800;DHT22;3944;47.984;7.960;2022-08-03T08:45:30;23.90;93.70
7800;DHT22;3944;47.984;7.960;2022-08-03T08:47:59;24.30;94.60
7800;DHT22;3944;47.984;7.960;2022-08-03T08:50:28;24.30;92.60
7800;DHT22;3944;47.984;7.960;2022-08-03T08:52:56;24.20;92.30
7800;DHT22;3944;47.984;7.960;2022-08-03T08:55:25;24.10;92.20
7800;DHT22;3944;47.984;7.960;2022-08-03T08:57:57;24.40;92.20
7800;DHT22;3944;47.984;7.960;2022-08-03T09:00:25;24.50;91.00
7800;DHT22;3944;47.984;7.960;2022-08-03T09:02:54;24.40;90.90
7800;DHT22;3944;47.984;7.960;2022-08-03T09:05:20;24.60;90.30
7800;DHT22;3944;47.984;7.960;2022-08-03T09:07:48;24.80;89.90
7800;DHT22;3944;47.984;7.960;2022-08-03T09:10:16;24.60;90.20
7800;DHT22;3944;47.984;7.960;2022-08-03T09:12:45;24.80;90.30
7800;DHT22;3944;47.984;7.960;2022-08-03T09:15:20;24.90;92.00
7800;DHT22;3944;47.984;7.960;2022-08-03T09:17:47;24.90;90.30
7800;DHT22;3944;47.984;7.960;2022-08-03T09:20:16;25.10;88.70
7800;DHT22;3944;47.984;7.960;2022-08-03T09:22:55;25.30;89.00
7800;DHT22;3944;47.984;7.960;2022-08-03T09:25:32;25.50;88.40
7800;DHT22;3944;47.984;7.960;2022-08-03T09:28:08;25.50;89.70
7800;DHT22;3944;47.984;7.960;2022-08-03T09:30:37;25.50;88.30
7800;DHT22;3944;47.984;7.960;2022-08-03T09:33:05;25.50;87.40
7800;DHT22;3944;47.984;7.960;2022-08-03T09:35:39;25.50;86.50
7800;DHT22;3944;47.984;7.960;2022-08-03T09:38:10;25.30;88.00
7800;DHT22;3944;47.984;7.960;2022-08-03T09:40:39;25.50;86.80
7800;DHT22;3944;47.984;7.960;2022-08-03T09:43:07;25.50;87.70
7800;DHT22;3944;47.984;7.960;2022-08-03T09:45:34;25.60;85.80
7800;DHT22;3944;47.984;7.960;2022-08-03T09:48:21;25.70;86.20
7800;DHT22;3944;47.984;7.960;2022-08-03T09:50:51;25.60;84.70
7800;DHT22;3944;47.984;7.960;2022-08-03T09:53:18;25.90;84.40
7800;DHT22;3944;47.984;7.960;2022-08-03T09:55:53;26.00;84.80
7800;DHT22;3944;47.984;7.960;2022-08-03T09:58:21;26.00;85.00
7800;DHT22;3944;47.984;7.960;2022-08-03T10:00:53;26.10;85.80
7800;DHT22;3944;47.984;7.960;2022-08-03T10:03:20;26.20;83.50
7800;DHT22;3944;47.984;7.960;2022-08-03T10:05:46;26.30;81.20
7800;DHT22;3944;47.984;7.960;2022-08-03T10:08:16;26.30;81.90
7800;DHT22;3944;47.984;7.960;2022-08-03T10:10:44;26.30;82.30
7800;DHT22;3944;47.984;7.960;2022-08-03T10:13:13;26.30;82.10
7800;DHT22;3944;47.984;7.960;2022-08-03T10:15:40;26.50;82.00
7800;DHT22;3944;47.984;7.960;2022-08-03T10:18:07;26.60;80.40
7800;DHT22;3944;47.984;7.960;2022-08-03T10:20:37;26.60;80.20
7800;DHT22;3944;47.984;7.960;2022-08-03T10:23:07;26.60;80.70
7800;DHT22;3944;47.984;7.960;2022-08-03T10:25:37;26.60;82.00
7800;DHT22;3944;47.984;7.960;2022-08-03T10:28:07;26.50;81.40
7800;DHT22;3944;47.984;7.960;2022-08-03T10:30:40;26.70;79.60
7800;DHT22;3944;47.984;7.960;2022-08-03T10:33:16;26.90;78.90
7800;DHT22;3944;47.984;7.960;2022-08-03T10:35:46;26.70;79.80
7800;DHT22;3944;47.984;7.960;2022-08-03T10:38:18;26.90;79.10
7800;DHT22;3944;47.984;7.960;2022-08-03T10:40:48;27.00;79.60
7800;DHT22;3944;47.984;7.960;2022-08-03T10:43:18;27.00;79.10
7800;DHT22;3944;47.984;7.960;2022-08-03T10:45:45;27.00;78.00
7800;DHT22;3944;47.984;7.960;2022-08-03T10:48:12;27.20;77.80
7800;DHT22;3944;47.984;7.960;2022-08-03T10:50:41;27.10;77.40
7800;DHT22;3944;47.984;7.960;2022-08-03T10:53:08;27.20;77.70
7800;DHT22;3944;47.984;7.960;2022-08-03T10:55:36;27.20;76.60
7800;DHT22;3944;47.984;7.960;2022-08-03T10:58:50;27.40;75.40
7800;DHT22;3944;47.984;7.960;2022-08-03T11:01:18;27.20;76.80
7800;DHT22;3944;47.984;7.960;2022-08-03T11:04:14;27.40;76.60
7800;DHT22;3944;47.984;7.960;2022-08-03T11:06:41;27.40;76.10
7800;DHT22;3944;47.984;7.960;2022-08-03T11:09:16;27.40;76.50
7800;DHT22;3944;47.984;7.960;2022-08-03T11:11:45;27.50;75.00
7800;DHT22;3944;47.984;7.960;2022-08-03T11:14:15;27.40;74.40
7800;DHT22;3944;47.984;7.960;2022-08-03T11:16:44;27.60;73.40
7800;DHT22;3944;47.984;7.960;2022-08-03T11:19:13;27.60;75.00
7800;DHT22;3944;47.984;7.960;2022-08-03T11:21:54;27.30;75.80
7800;DHT22;3944;47.984;7.960;2022-08-03T11:24:55;27.50;74.70
7800;DHT22;3944;47.984;7.960;2022-08-03T11:27:23;27.50;74.80
7800;DHT22;3944;47.984;7.960;2022-08-03T11:30:00;27.40;75.80
7800;DHT22;3944;47.984;7.960;2022-08-03T11:32:52;27.70;75.50
7800;DHT22;3944;47.984;7.960;2022-08-03T11:35:22;27.70;75.60
7800;DHT22;3944;47.984;7.960;2022-08-03T11:38:04;27.80;73.70
7800;DHT22;3944;47.984;7.960;2022-08-03T11:40:36;27.50;76.20
7800;DHT22;3944;47.984;7.960;2022-08-03T11:43:04;27.60;74.90
7800;DHT22;3944;47.984;7.960;2022-08-03T11:45:33;27.70;75.30
7800;DHT22;3944;47.984;7.960;2022-08-03T11:48:11;27.80;76.10
7800;DHT22;3944;47.984;7.960;2022-08-03T11:50:39;27.90;73.30
7800;DHT22;3944;47.984;7.960;2022-08-03T11:53:13;28.00;72.90
7800;DHT22;3944;47.984;7.960;2022-08-03T11:55:41;27.90;73.30
7800;DHT22;3944;47.984;7.960;2022-08-03T11:58:15;27.90;72.90
7800;DHT22;3944;47.984;7.960;2022-08-03T12:00:43;27.90;72.60
7800;DHT22;3944;47.984;7.960;2022-08-03T12:03:11;27.80;72.40
7800;DHT22;3944;47.984;7.960;2022-08-03T12:05:45;28.10;70.70
7800;DHT22;3944;47.984;7.960;2022-08-03T12:08:13;28.00;72.30
7800;DHT22;3944;47.984;7.960;2022-08-03T12:10:46;28.10;70.70
7800;DHT22;3944;47.984;7.960;2022-08-03T12:13:14;28.10;71.30
7800;DHT22;3944;47.984;7.960;2022-08-03T12:15:42;28.20;71.00
7800;DHT22;3944;47.984;7.960;2022-08-03T12:18:14;28.20;71.20
7800;DHT22;3944;47.984;7.960;2022-08-03T12:20:41;28.00;70.80
7800;DHT22;3944;47.984;7.960;2022-08-03T12:23:08;28.00;72.20
7800;DHT22;3944;47.984;7.960;2022-08-03T12:25:37;28.10;72.10
7800;DHT22;3944;47.984;7.960;2022-08-03T12:28:09;27.80;71.80
7800;DHT22;3944;47.984;7.960;2022-08-03T12:30:38;27.90;70.60
7800;DHT22;3944;47.984;7.960;2022-08-03T12:33:21;28.00;70.90
7800;DHT22;3944;47.984;7.960;2022-08-03T12:35:51;28.00;74.40
7800;DHT22;3944;47.984;7.960;2022-08-03T12:38:27;28.10;71.40
7800;DHT22;3944;47.984;7.960;2022-08-03T12:40:58;28.00;72.40
7800;DHT22;3944;47.984;7.960;2022-08-03T12:43:25;27.90;72.40
7800;DHT22;3944;47.984;7.960;2022-08-03T12:46:09;27.60;72.60
7800;DHT22;3944;47.984;7.960;2022-08-03T12:49:01;27.60;71.30
7800;DHT22;3944;47.984;7.960;2022-08-03T12:51:30;27.70;70.50
7800;DHT22;3944;47.984;7.960;2022-08-03T12:53:58;27.60;72.60
7800;DHT22;3944;47.984;7.960;2022-08-03T12:56:25;27.70;76.10
7800;DHT22;3944;47.984;7.960;2022-08-03T12:58:52;27.90;72.40
7800;DHT22;3944;47.984;7.960;2022-08-03T13:01:19;28.10;70.90
7800;DHT22;3944;47.984;7.960;2022-08-03T13:03:50;28.10;73.40
7800;DHT22;3944;47.984;7.960;2022-08-03T13:06:19;27.70;74.20
7800;DHT22;3944;47.984;7.960;2022-08-03T13:08:47;27.80;70.70
7800;DHT22;3944;47.984;7.960;2022-08-03T13:11:23;28.00;71.90
7800;DHT22;3944;47.984;7.960;2022-08-03T13:13:50;28.00;73.10
7800;DHT22;3944;47.984;7.960;2022-08-03T13:16:17;28.10;71.40
7800;DHT22;3944;47.984;7.960;2022-08-03T13:18:46;28.30;71.20
7800;DHT22;3944;47.984;7.960;2022-08-03T13:21:15;28.00;72.80
7800;DHT22;3944;47.984;7.960;2022-08-03T13:23:43;28.00;72.40
7800;DHT22;3944;47.984;7.960;2022-08-03T13:26:10;28.40;68.10
7800;DHT22;3944;47.984;7.960;2022-08-03T13:28:37;28.50;67.50
7800;DHT22;3944;47.984;7.960;2022-08-03T13:31:04;28.30;69.20
7800;DHT22;3944;47.984;7.960;2022-08-03T13:33:31;28.60;68.50
7800;DHT22;3944;47.984;7.960;2022-08-03T13:35:58;28.70;67.90
7800;DHT22;3944;47.984;7.960;2022-08-03T13:38:26;28.60;68.10
7800;DHT22;3944;47.984;7.960;2022-08-03T13:40:53;28.90;67.10
7800;DHT22;3944;47.984;7.960;2022-08-03T13:43:20;28.60;67.80
7800;DHT22;3944;47.984;7.960;2022-08-03T13:45:47;28.40;67.30
7800;DHT22;3944;47.984;7.960;2022-08-03T13:48:14;28.40;67.20
7800;DHT22;3944;47.984;7.960;2022-08-03T13:50:40;28.60;68.30
7800;DHT22;3944;47.984;7.960;2022-08-03T13:53:07;28.70;68.00
7800;DHT22;3944;47.984;7.960;2022-08-03T13:55:35;28.50;68.60
7800;DHT22;3944;47.984;7.960;2022-08-03T13:58:02;28.70;66.40
7800;DHT22;3944;47.984;7.960;2022-08-03T14:00:33;28.80;67.90
7800;DHT22;3944;47.984;7.960;2022-08-03T14:03:01;28.40;71.00
7800;DHT22;3944;47.984;7.960;2022-08-03T14:05:28;28.50;71.40
7800;DHT22;3944;47.984;7.960;2022-08-03T14:07:55;28.90;69.40
7800;DHT22;3944;47.984;7.960;2022-08-03T14:10:21;28.90;67.20
7800;DHT22;3944;47.984;7.960;2022-08-03T14:12:50;28.70;65.70
7800;DHT22;3944;47.984;7.960;2022-08-03T14:15:16;28.90;67.00
7800;DHT22;3944;47.984;7.960;2022-08-03T14:17:43;29.20;65.30
7800;DHT22;3944;47.984;7.960;2022-08-03T14:20:11;29.20;66.70
7800;DHT22;3944;47.984;7.960;2022-08-03T14:22:39;29.10;64.60
7800;DHT22;3944;47.984;7.960;2022-08-03T14:25:06;29.10;66.20
7800;DHT22;3944;47.984;7.960;2022-08-03T14:27:33;28.90;65.30
7800;DHT22;3944;47.984;7.960;2022-08-03T14:30:02;28.70;65.90
7800;DHT22;3944;47.984;7.960;2022-08-03T14:32:29;28.50;67.60
7800;DHT22;3944;47.984;7.960;2022-08-03T14:34:56;28.30;69.40
7800;DHT22;3944;47.984;7.960;2022-08-03T14:37:23;28.30;69.50
7800;DHT22;3944;47.984;7.960;2022-08-03T14:39:50;28.30;67.60
7800;DHT22;3944;47.984;7.960;2022-08-03T14:42:16;28.40;64.90
7800;DHT22;3944;47.984;7.960;2022-08-03T14:44:44;28.40;65.50
7800;DHT22;3944;47.984;7.960;2022-08-03T14:47:13;28.30;67.40
7800;DHT22;3944;47.984;7.960;2022-08-03T14:49:40;28.80;59.60
7800;DHT22;3944;47.984;7.960;2022-08-03T14:52:07;28.60;61.50
7800;DHT22;3944;47.984;7.960;2022-08-03T14:54:34;28.70;59.20
7800;DHT22;3944;47.984;7.960;2022-08-03T14:57:01;29.00;58.30
7800;DHT22;3944;47.984;7.960;2022-08-03T14:59:28;29.40;56.10
7800;DHT22;3944;47.984;7.960;2022-08-03T15:01:55;29.20;59.40
7800;DHT22;3944;47.984;7.960;2022-08-03T15:04:23;29.30;54.80
7800;DHT22;3944;47.984;7.960;2022-08-03T15:06:50;29.00;56.70
7800;DHT22;3944;47.984;7.960;2022-08-03T15:09:17;28.90;55.10
7800;DHT22;3944;47.984;7.960;2022-08-03T15:11:44;29.20;53.30
7800;DHT22;3944;47.984;7.960;2022-08-03T15:14:10;29.20;55.00
7800;DHT22;3944;47.984;7.960;2022-08-03T15:16:37;29.30;55.10
7800;DHT22;3944;47.984;7.960;2022-08-03T15:19:04;29.10;54.70
7800;DHT22;3944;47.984;7.960;2022-08-03T15:21:32;29.10;53.90
7800;DHT22;3944;47.984;7.960;2022-08-03T15:23:59;29.00;54.80
7800;DHT22;3944;47.984;7.960;2022-08-03T15:26:26;29.00;54.20
7800;DHT22;3944;47.984;7.960;2022-08-03T15:28:53;29.10;52.30
7800;DHT22;3944;47.984;7.960;2022-08-03T15:31:20;29.00;51.60
7800;DHT22;3944;47.984;7.960;2022-08-03T15:33:47;29.10;54.50
7800;DHT22;3944;47.984;7.960;2022-08-03T15:36:15;29.00;52.20
7800;DHT22;3944;47.984;7.960;2022-08-03T15:38:44;29.00;52.80
7800;DHT22;3944;47.984;7.960;2022-08-03T15:41:11;28.80;53.30
7800;DHT22;3944;47.984;7.960;2022-08-03T15:43:38;28.80;52.70
7800;DHT22;3944;47.984;7.960;2022-08-03T15:46:05;28.70;53.10
7800;DHT22;3944;47.984;7.960;2022-08-03T15:48:32;28.70;52.60
7800;DHT22;3944;47.984;7.960;2022-08-03T15:50:59;28.50;54.70
7800;DHT22;3944;47.984;7.960;2022-08-03T15:53:26;28.70;53.30
7800;DHT22;3944;47.984;7.960;2022-08-03T15:55:54;28.70;50.80
7800;DHT22;3944;47.984;7.960;2022-08-03T15:58:21;28.70;51.20
7800;DHT22;3944;47.984;7.960;2022-08-03T16:00:48;28.60;52.70
7800;DHT22;3944;47.984;7.960;2022-08-03T16:03:15;28.70;51.80
7800;DHT22;3944;47.984;7.960;2022-08-03T16:05:42;28.80;51.80
7800;DHT22;3944;47.984;7.960;2022-08-03T16:08:08;28.70;52.90
7800;DHT22;3944;47.984;7.960;2022-08-03T16:10:36;28.50;51.80
7800;DHT22;3944;47.984;7.960;2022-08-03T16:13:05;28.70;50.10
7800;DHT22;3944;47.984;7.960;2022-08-03T16:15:32;28.80;49.90
7800;DHT22;3944;47.984;7.960;2022-08-03T16:17:59;28.70;50.60